Time;durP1;ratioP1;P1;durP2;ratioP2;P2;SDS_P1;SDS_P2;PMS_P1;PMS_P2;Temp;Humidity;BMP_temperature;BMP_pressure;BME280_temperature;BME280_humidity;BME280_pressure;Samples;Min_cycle;Max_cycle;Signal;HPM_P1;HPM_P2
2022/01/12 00:02:17;;;;;;;;;;;3.60;99.90;;;;;;5107475;28;19923;-64
2022/01/12 00:04:43;;;;;;;;;;;3.60;99.90;;;;;;5110337;28;19923;-63
2022/01/12 00:07:09;;;;;;;;;;;3.60;99.90;;;;;;5101136;28;19934;-64
2022/01/12 00:09:34;;;;;;;;;;;3.60;99.90;;;;;;5110639;28;19932;-63
2022/01/12 00:12:00;;;;;;;;;;;3.80;99.90;;;;;;5110112;28;19923;-63
2022/01/12 00:14:27;;;;;;;;;;;3.70;99.90;;;;;;5110410;28;19928;-63
2022/01/12 00:16:58;;;;;;;;;;;3.70;99.90;;;;;;5106734;28;20359;-63
2022/01/12 00:19:25;;;;;;;;;;;3.70;99.90;;;;;;5111094;28;19920;-65
2022/01/12 00:21:51;;;;;;;;;;;3.70;99.90;;;;;;5113323;28;20334;-64
2022/01/12 00:24:16;;;;;;;;;;;3.70;99.90;;;;;;5114009;28;20301;-64
2022/01/12 00:33:08;;;;;;;;;;;3.70;99.90;;;;;;5108715;28;20019;-64
2022/01/12 00:35:13;;;;;;;;;;;3.80;99.90;;;;;;5090344;28;20019;-63
2022/01/12 00:37:38;;;;;;;;;;;3.80;99.90;;;;;;5101257;28;20062;-64
2022/01/12 00:40:04;;;;;;;;;;;3.70;99.90;;;;;;5113225;28;20459;-63
2022/01/12 00:42:30;;;;;;;;;;;3.80;99.90;;;;;;5113356;28;19928;-63
2022/01/12 00:45:00;;;;;;;;;;;3.70;99.90;;;;;;5113822;28;19927;-63
2022/01/12 00:47:25;;;;;;;;;;;3.80;99.90;;;;;;5112702;28;19975;-65
2022/01/12 00:49:51;;;;;;;;;;;3.80;99.90;;;;;;5105214;28;20032;-64
2022/01/12 00:52:17;;;;;;;;;;;3.80;99.90;;;;;;5093202;28;19928;-64
2022/01/12 00:54:42;;;;;;;;;;;4.00;99.90;;;;;;5112769;28;19935;-63
2022/01/12 00:57:08;;;;;;;;;;;3.80;99.90;;;;;;5113791;28;19978;-63
2022/01/12 00:59:33;;;;;;;;;;;3.80;99.90;;;;;;5108075;28;20321;-65
2022/01/12 01:01:59;;;;;;;;;;;3.80;99.90;;;;;;5114304;28;19924;-64
2022/01/12 01:04:25;;;;;;;;;;;3.80;99.90;;;;;;5113071;28;20356;-65
2022/01/12 01:06:52;;;;;;;;;;;3.80;99.90;;;;;;5114101;28;19928;-63
2022/01/12 01:09:17;;;;;;;;;;;3.80;99.90;;;;;;5108457;28;19931;-64
2022/01/12 01:11:43;;;;;;;;;;;3.80;99.90;;;;;;5113874;28;19924;-65
2022/01/12 01:14:22;;;;;;;;;;;3.80;99.90;;;;;;5113171;28;20284;-64
2022/01/12 01:27:28;;;;;;;;;;;3.90;99.90;;;;;;5092885;28;20282;-64
2022/01/12 01:29:54;;;;;;;;;;;3.90;99.90;;;;;;5094153;28;19928;-63
2022/01/12 01:32:20;;;;;;;;;;;3.90;99.90;;;;;;5111032;28;19962;-64
2022/01/12 01:34:48;;;;;;;;;;;3.90;99.90;;;;;;5112605;28;19927;-64
2022/01/12 01:37:14;;;;;;;;;;;3.80;99.90;;;;;;5113098;28;19923;-65
2022/01/12 01:39:39;;;;;;;;;;;3.90;99.90;;;;;;5111991;28;20331;-64
2022/01/12 01:42:14;;;;;;;;;;;3.90;99.90;;;;;;5108923;28;20327;-63
2022/01/12 01:55:19;;;;;;;;;;;3.90;99.90;;;;;;5112364;28;19924;-64
2022/01/12 01:57:45;;;;;;;;;;;3.90;99.90;;;;;;5112722;28;19927;-63
2022/01/12 02:00:13;;;;;;;;;;;3.90;99.90;;;;;;5111922;28;20470;-63
2022/01/12 02:02:38;;;;;;;;;;;3.90;99.90;;;;;;5107402;28;19928;-64
2022/01/12 02:05:05;;;;;;;;;;;3.90;99.90;;;;;;5112569;28;20386;-64
2022/01/12 02:07:31;;;;;;;;;;;4.00;99.90;;;;;;5112413;27;19927;-65
2022/01/12 02:09:57;;;;;;;;;;;4.00;99.90;;;;;;5111625;28;19928;-65
2022/01/12 02:12:27;;;;;;;;;;;4.00;99.90;;;;;;5105644;28;19931;-64
2022/01/12 02:14:54;;;;;;;;;;;4.00;99.90;;;;;;5108637;28;19982;-65
2022/01/12 02:17:24;;;;;;;;;;;4.00;99.90;;;;;;5112129;28;19928;-65
2022/01/12 02:36:16;;;;;;;;;;;4.10;99.90;;;;;;5108265;28;19934;-65
2022/01/12 02:41:26;;;;;;;;;;;4.20;99.90;;;;;;5110747;28;20326;-65
2022/01/12 02:54:46;;;;;;;;;;;4.30;99.90;;;;;;5110986;28;19986;-65
2022/01/12 02:57:11;;;;;;;;;;;4.30;99.90;;;;;;5106379;28;19974;-64
2022/01/12 02:59:41;;;;;;;;;;;4.30;99.90;;;;;;5109721;28;19959;-65
2022/01/12 03:02:30;;;;;;;;;;;4.30;99.90;;;;;;5110829;28;20365;-64
2022/01/12 03:07:36;;;;;;;;;;;4.20;99.90;;;;;;5108888;28;20514;-65
2022/01/12 03:10:02;;;;;;;;;;;4.10;99.90;;;;;;5102125;28;19919;-64
2022/01/12 03:12:28;;;;;;;;;;;4.10;99.90;;;;;;5110631;28;20253;-64
2022/01/12 03:14:53;;;;;;;;;;;4.10;99.90;;;;;;5110200;28;19977;-66
2022/01/12 03:17:20;;;;;;;;;;;4.00;99.90;;;;;;5111024;28;19931;-65
2022/01/12 03:19:46;;;;;;;;;;;4.00;99.90;;;;;;5109900;28;19927;-64
2022/01/12 03:22:12;;;;;;;;;;;3.90;99.90;;;;;;5111476;28;19934;-62
2022/01/12 03:24:37;;;;;;;;;;;3.80;99.90;;;;;;5110802;28;20241;-65
2022/01/12 03:27:03;;;;;;;;;;;3.90;99.90;;;;;;5110719;28;19927;-65
2022/01/12 03:29:29;;;;;;;;;;;3.80;99.90;;;;;;5109248;28;20380;-66
2022/01/12 03:31:57;;;;;;;;;;;3.70;99.90;;;;;;5110426;28;19930;-65
2022/01/12 03:34:29;;;;;;;;;;;3.70;99.90;;;;;;5091708;28;19976;-63
2022/01/12 03:37:17;;;;;;;;;;;3.60;99.90;;;;;;5090370;28;19931;-63
2022/01/12 03:39:40;;;;;;;;;;;3.70;99.90;;;;;;5110507;28;19983;-64
2022/01/12 03:42:05;;;;;;;;;;;3.50;99.90;;;;;;5109633;28;19975;-63
2022/01/12 03:44:31;;;;;;;;;;;3.50;99.90;;;;;;5110306;28;19950;-63
2022/01/12 03:46:57;;;;;;;;;;;3.50;99.90;;;;;;5093910;28;19924;-63
2022/01/12 03:49:22;;;;;;;;;;;3.50;99.90;;;;;;5107185;28;19924;-63
2022/01/12 03:51:48;;;;;;;;;;;3.50;99.90;;;;;;5110535;28;19924;-64
2022/01/12 03:54:14;;;;;;;;;;;3.40;99.90;;;;;;5103412;28;19975;-63
2022/01/12 03:56:40;;;;;;;;;;;3.40;99.90;;;;;;5091535;28;19990;-63
2022/01/12 03:59:05;;;;;;;;;;;3.40;99.90;;;;;;5102875;28;20397;-64
2022/01/12 04:01:31;;;;;;;;;;;3.50;99.90;;;;;;5108550;28;19950;-66
2022/01/12 04:04:03;;;;;;;;;;;3.40;99.90;;;;;;5114485;28;19931;-63
2022/01/12 04:09:13;;;;;;;;;;;3.40;99.90;;;;;;5113906;28;19984;-63
2022/01/12 04:11:38;;;;;;;;;;;3.50;99.90;;;;;;5107841;28;20439;-64
2022/01/12 04:14:04;;;;;;;;;;;3.50;99.90;;;;;;5113120;28;20288;-63
2022/01/12 04:16:31;;;;;;;;;;;3.40;99.90;;;;;;5113321;28;19928;-64
2022/01/12 04:18:56;;;;;;;;;;;3.40;99.90;;;;;;5113980;28;20399;-63
2022/01/12 04:21:29;;;;;;;;;;;3.40;99.90;;;;;;5114926;28;19923;-65
2022/01/12 04:23:55;;;;;;;;;;;3.40;99.90;;;;;;5107105;28;19946;-63
2022/01/12 04:26:21;;;;;;;;;;;3.30;99.90;;;;;;5114302;28;19924;-65
2022/01/12 04:28:47;;;;;;;;;;;3.30;99.90;;;;;;5095551;28;20322;-63
2022/01/12 04:31:13;;;;;;;;;;;3.30;99.90;;;;;;5114325;28;19947;-63
2022/01/12 04:33:39;;;;;;;;;;;3.30;99.90;;;;;;5113648;28;19935;-63
2022/01/12 04:36:06;;;;;;;;;;;3.30;99.90;;;;;;5109666;28;19924;-63
2022/01/12 04:38:33;;;;;;;;;;;3.30;99.90;;;;;;5094147;28;20402;-63
2022/01/12 04:41:03;;;;;;;;;;;3.30;99.90;;;;;;5095549;28;19962;-63
2022/01/12 04:43:29;;;;;;;;;;;3.20;99.90;;;;;;5113469;28;19927;-63
2022/01/12 04:50:47;;;;;;;;;;;3.20;99.90;;;;;;5108279;28;20357;-63
2022/01/12 04:53:14;;;;;;;;;;;3.10;99.90;;;;;;5114041;28;20037;-64
2022/01/12 04:55:40;;;;;;;;;;;3.30;99.90;;;;;;5113108;28;20057;-63
2022/01/12 04:58:06;;;;;;;;;;;3.10;99.90;;;;;;5113721;28;20018;-63
2022/01/12 05:00:32;;;;;;;;;;;3.00;99.90;;;;;;5095458;28;19938;-65
2022/01/12 05:13:37;;;;;;;;;;;2.80;99.90;;;;;;5110939;28;19931;-64
2022/01/12 05:16:04;;;;;;;;;;;2.80;99.90;;;;;;5103979;28;19923;-64
2022/01/12 05:18:30;;;;;;;;;;;2.80;99.90;;;;;;5113170;28;20342;-63
2022/01/12 05:20:56;;;;;;;;;;;2.70;99.90;;;;;;5113298;28;19926;-63
2022/01/12 05:23:21;;;;;;;;;;;2.70;99.90;;;;;;5113440;28;19935;-65
2022/01/12 05:25:47;;;;;;;;;;;2.60;99.90;;;;;;5112113;28;19932;-64
2022/01/12 05:28:13;;;;;;;;;;;2.60;99.90;;;;;;5108657;28;20280;-64
2022/01/12 05:30:39;;;;;;;;;;;2.50;99.90;;;;;;5111936;27;19927;-63
2022/01/12 05:33:05;;;;;;;;;;;2.50;99.90;;;;;;5111532;28;19977;-63
2022/01/12 05:35:33;;;;;;;;;;;2.50;99.90;;;;;;5110583;28;19970;-63
2022/01/12 05:37:59;;;;;;;;;;;2.50;99.90;;;;;;5112917;28;19931;-63
2022/01/12 05:40:24;;;;;;;;;;;2.50;99.90;;;;;;5112450;28;19924;-63
2022/01/12 05:42:51;;;;;;;;;;;2.50;99.90;;;;;;5112996;28;20405;-63
2022/01/12 05:45:19;;;;;;;;;;;2.50;99.90;;;;;;5112398;28;19924;-64
2022/01/12 05:50:10;;;;;;;;;;;2.50;99.90;;;;;;5100097;28;20285;-63
2022/01/12 05:52:36;;;;;;;;;;;2.50;99.90;;;;;;5111988;28;19924;-64
2022/01/12 05:55:03;;;;;;;;;;;2.50;99.90;;;;;;5112192;28;20089;-63
2022/01/12 05:57:30;;;;;;;;;;;2.50;99.90;;;;;;5112677;28;20358;-66
2022/01/12 05:59:56;;;;;;;;;;;2.50;99.90;;;;;;5106721;28;19946;-63
2022/01/12 06:02:21;;;;;;;;;;;2.40;99.90;;;;;;5111619;27;19932;-63
2022/01/12 06:04:47;;;;;;;;;;;2.50;99.90;;;;;;5112116;28;19934;-63
2022/01/12 06:07:12;;;;;;;;;;;2.40;99.90;;;;;;5112244;28;19927;-67
2022/01/12 06:09:38;;;;;;;;;;;2.40;99.90;;;;;;5112435;28;19927;-66
2022/01/12 06:12:04;;;;;;;;;;;2.40;99.90;;;;;;5110089;28;19931;-64
2022/01/12 06:14:30;;;;;;;;;;;2.40;99.90;;;;;;5112428;28;20022;-64
2022/01/12 06:16:56;;;;;;;;;;;2.80;99.90;;;;;;5103435;28;20070;-64
2022/01/12 06:19:21;;;;;;;;;;;2.40;99.90;;;;;;5093243;28;19978;-64
2022/01/12 06:21:47;;;;;;;;;;;2.40;99.90;;;;;;5111850;28;19923;-64
2022/01/12 06:24:12;;;;;;;;;;;2.50;99.90;;;;;;5108810;28;19982;-66
2022/01/12 06:26:43;;;;;;;;;;;2.40;99.90;;;;;;5111957;28;20107;-64
2022/01/12 06:31:39;;;;;;;;;;;2.40;99.90;;;;;;5111008;28;20371;-64
2022/01/12 06:34:05;;;;;;;;;;;2.40;99.90;;;;;;5111369;28;19923;-65
2022/01/12 06:36:30;;;;;;;;;;;2.30;99.90;;;;;;5101108;28;20433;-65
2022/01/12 06:38:56;;;;;;;;;;;2.30;99.90;;;;;;5111867;28;19928;-72
2022/01/12 06:41:22;;;;;;;;;;;2.30;99.90;;;;;;5093381;28;19938;-66
2022/01/12 06:43:48;;;;;;;;;;;2.30;99.90;;;;;;5090034;28;19924;-64
2022/01/12 06:46:17;;;;;;;;;;;2.30;99.90;;;;;;5083128;28;20011;-67
2022/01/12 06:48:43;;;;;;;;;;;2.30;99.90;;;;;;5110866;28;19962;-64
2022/01/12 06:51:09;;;;;;;;;;;2.20;99.90;;;;;;5111164;28;19975;-64
2022/01/12 06:53:34;;;;;;;;;;;2.30;99.90;;;;;;5110694;28;20402;-68
2022/01/12 06:56:00;;;;;;;;;;;2.20;99.90;;;;;;5111327;28;19923;-63
2022/01/12 06:58:25;;;;;;;;;;;2.30;99.90;;;;;;5099420;28;20296;-64
2022/01/12 07:00:51;;;;;;;;;;;2.20;99.90;;;;;;5099213;28;19971;-64
2022/01/12 07:03:17;;;;;;;;;;;2.20;99.90;;;;;;5098944;28;20034;-64
2022/01/12 07:05:42;;;;;;;;;;;2.20;99.90;;;;;;5111058;28;20436;-64
2022/01/12 07:08:08;;;;;;;;;;;2.20;99.90;;;;;;5111167;28;19932;-63
2022/01/12 07:10:33;;;;;;;;;;;2.20;99.90;;;;;;5107705;28;20022;-65
2022/01/12 07:12:59;;;;;;;;;;;2.20;99.90;;;;;;5107904;28;20390;-69
2022/01/12 07:15:25;;;;;;;;;;;2.10;99.90;;;;;;5098408;28;19931;-65
2022/01/12 07:17:50;;;;;;;;;;;2.10;99.90;;;;;;5110008;28;19983;-64
2022/01/12 07:20:16;;;;;;;;;;;2.30;99.90;;;;;;5110735;27;19928;-64
2022/01/12 07:24:53;;;;;;;;;;;2.10;99.90;;;;;;5116918;27;1275657;-65
2022/01/12 07:27:19;;;;;;;;;;;2.00;99.90;;;;;;5130674;27;19923;-65
2022/01/12 07:29:44;;;;;;;;;;;2.10;99.90;;;;;;5149714;27;19930;-63
2022/01/12 07:32:10;;;;;;;;;;;2.00;99.90;;;;;;5130311;27;19923;-63
2022/01/12 07:34:35;;;;;;;;;;;2.10;99.90;;;;;;5130173;27;19923;-64
2022/01/12 07:37:01;;;;;;;;;;;2.00;99.90;;;;;;5130569;27;20033;-64
2022/01/12 07:39:27;;;;;;;;;;;2.00;99.90;;;;;;5148660;27;19923;-64
2022/01/12 07:41:52;;;;;;;;;;;1.90;99.90;;;;;;5149406;27;20269;-64
2022/01/12 07:44:20;;;;;;;;;;;1.90;99.90;;;;;;5148505;27;20026;-65
2022/01/12 07:46:46;;;;;;;;;;;2.00;99.90;;;;;;5147056;27;19930;-66
2022/01/12 07:49:12;;;;;;;;;;;1.90;99.90;;;;;;5129021;27;20292;-65
2022/01/12 07:51:38;;;;;;;;;;;1.90;99.90;;;;;;5109156;27;19972;-65
2022/01/12 07:54:03;;;;;;;;;;;1.90;99.90;;;;;;5093615;27;19940;-66
2022/01/12 07:56:29;;;;;;;;;;;1.80;99.90;;;;;;5146771;27;20266;-65
2022/01/12 07:58:54;;;;;;;;;;;1.80;99.90;;;;;;5149468;27;19919;-65
2022/01/12 08:01:20;;;;;;;;;;;1.80;99.90;;;;;;5113566;27;19937;-65
2022/01/12 08:03:46;;;;;;;;;;;1.80;99.90;;;;;;5112647;27;19987;-66
2022/01/12 08:06:11;;;;;;;;;;;1.80;99.90;;;;;;5130357;27;19957;-64
2022/01/12 08:08:37;;;;;;;;;;;1.90;99.90;;;;;;5148822;27;19919;-68
2022/01/12 08:11:03;;;;;;;;;;;1.80;99.90;;;;;;5113821;27;19915;-64
2022/01/12 08:13:28;;;;;;;;;;;1.80;99.90;;;;;;5130124;27;19919;-65
2022/01/12 08:15:54;;;;;;;;;;;1.80;99.90;;;;;;5127477;27;20332;-64
2022/01/12 08:18:20;;;;;;;;;;;1.80;99.90;;;;;;5113035;27;19926;-64
2022/01/12 08:20:45;;;;;;;;;;;1.80;99.90;;;;;;5113082;27;19919;-64
2022/01/12 08:23:11;;;;;;;;;;;1.80;99.90;;;;;;5129419;27;19923;-66
2022/01/12 08:25:38;;;;;;;;;;;1.90;99.90;;;;;;5126602;27;19927;-65
2022/01/12 08:28:07;;;;;;;;;;;1.90;99.90;;;;;;5111848;28;19953;-63
2022/01/12 08:30:34;;;;;;;;;;;1.90;99.90;;;;;;5103222;27;19926;-66
2022/01/12 08:33:01;;;;;;;;;;;1.90;99.90;;;;;;5112116;27;19927;-66
2022/01/12 08:35:27;;;;;;;;;;;1.90;99.90;;;;;;5118972;27;20464;-64
2022/01/12 08:37:53;;;;;;;;;;;1.90;99.90;;;;;;5095833;27;19930;-64
2022/01/12 08:40:19;;;;;;;;;;;2.00;99.90;;;;;;5115477;27;19923;-64
2022/01/12 08:42:46;;;;;;;;;;;2.00;99.90;;;;;;5116153;27;19919;-66
2022/01/12 08:45:11;;;;;;;;;;;2.10;99.90;;;;;;5115480;27;19923;-64
2022/01/12 08:47:37;;;;;;;;;;;2.10;99.90;;;;;;5098618;27;20022;-64
2022/01/12 08:50:03;;;;;;;;;;;2.20;99.90;;;;;;5116142;27;19924;-65
2022/01/12 08:52:30;;;;;;;;;;;2.20;99.90;;;;;;5115803;27;20324;-63
2022/01/12 08:54:56;;;;;;;;;;;2.40;99.90;;;;;;5104772;28;19923;-63
2022/01/12 08:57:21;;;;;;;;;;;2.20;99.90;;;;;;5097445;27;20031;-67
2022/01/12 08:59:47;;;;;;;;;;;2.30;99.90;;;;;;5109860;27;19934;-64
2022/01/12 09:02:14;;;;;;;;;;;2.30;99.90;;;;;;5115425;27;19927;-64
2022/01/12 09:04:43;;;;;;;;;;;2.40;99.90;;;;;;5074281;27;19980;-64
2022/01/12 09:07:09;;;;;;;;;;;2.40;99.90;;;;;;5060767;28;19965;-64
2022/01/12 09:09:35;;;;;;;;;;;2.50;99.90;;;;;;5084801;27;19924;-65
2022/01/12 09:12:02;;;;;;;;;;;2.50;99.90;;;;;;5077280;28;19920;-64
2022/01/12 09:14:28;;;;;;;;;;;2.50;99.90;;;;;;5100027;27;19923;-65
2022/01/12 09:16:55;;;;;;;;;;;2.50;99.90;;;;;;5105159;27;20386;-65
2022/01/12 09:19:24;;;;;;;;;;;2.60;99.90;;;;;;5076894;27;20073;-67
2022/01/12 09:21:50;;;;;;;;;;;2.60;99.90;;;;;;5123914;27;20270;-65
2022/01/12 09:24:16;;;;;;;;;;;2.70;99.90;;;;;;5080704;27;19923;-64
2022/01/12 09:26:41;;;;;;;;;;;2.70;99.90;;;;;;5109345;27;20006;-64
2022/01/12 09:29:07;;;;;;;;;;;2.80;99.90;;;;;;5081841;27;19931;-64
2022/01/12 09:31:33;;;;;;;;;;;2.70;99.90;;;;;;5103934;27;19920;-64
2022/01/12 09:34:00;;;;;;;;;;;2.70;99.90;;;;;;5094929;27;19936;-64
2022/01/12 09:36:26;;;;;;;;;;;2.80;99.90;;;;;;5091573;27;19920;-63
2022/01/12 09:38:52;;;;;;;;;;;2.70;99.90;;;;;;5126071;27;19931;-64
2022/01/12 09:41:17;;;;;;;;;;;2.80;99.90;;;;;;5103208;27;20005;-64
2022/01/12 09:43:44;;;;;;;;;;;2.80;99.90;;;;;;5106441;27;19934;-66
2022/01/12 09:46:11;;;;;;;;;;;3.00;99.90;;;;;;5096297;28;19923;-65
2022/01/12 09:48:37;;;;;;;;;;;2.90;99.90;;;;;;5102318;27;20317;-66
2022/01/12 09:51:04;;;;;;;;;;;3.00;99.90;;;;;;5112799;27;19919;-64
2022/01/12 09:53:31;;;;;;;;;;;3.00;99.90;;;;;;5100061;27;20039;-65
2022/01/12 09:55:57;;;;;;;;;;;3.00;99.90;;;;;;5107736;27;19927;-65
2022/01/12 09:58:23;;;;;;;;;;;3.00;99.90;;;;;;5096633;27;20013;-66
2022/01/12 10:00:58;;;;;;;;;;;3.00;99.90;;;;;;5113352;27;20280;-66
2022/01/12 10:03:25;;;;;;;;;;;3.00;99.90;;;;;;5090476;27;20280;-66
2022/01/12 10:05:52;;;;;;;;;;;3.10;99.90;;;;;;5110475;28;19989;-64
2022/01/12 10:08:18;;;;;;;;;;;3.10;99.90;;;;;;5088453;27;20349;-66
2022/01/12 10:11:02;;;;;;;;;;;3.10;99.90;;;;;;5111804;27;19928;-63
2022/01/12 10:13:28;;;;;;;;;;;3.20;99.90;;;;;;5132392;27;19921;-68
2022/01/12 10:15:54;;;;;;;;;;;3.30;99.90;;;;;;5114500;27;19927;-64
2022/01/12 10:18:20;;;;;;;;;;;3.40;99.90;;;;;;5111026;27;19929;-65
2022/01/12 10:20:46;;;;;;;;;;;3.40;99.90;;;;;;5131528;27;20002;-64
2022/01/12 10:23:14;;;;;;;;;;;3.50;99.90;;;;;;5106771;27;19920;-64
2022/01/12 10:25:44;;;;;;;;;;;3.50;99.90;;;;;;5066312;28;19929;-65
2022/01/12 10:28:13;;;;;;;;;;;3.60;99.90;;;;;;5062712;28;19978;-65
2022/01/12 10:30:39;;;;;;;;;;;3.60;99.90;;;;;;4991524;28;20339;-64
2022/01/12 10:33:07;;;;;;;;;;;3.60;99.90;;;;;;5062570;28;19969;-64
2022/01/12 10:35:35;;;;;;;;;;;3.70;99.90;;;;;;5076405;28;20362;-68
2022/01/12 10:38:11;;;;;;;;;;;3.70;99.90;;;;;;5076322;28;20389;-64
2022/01/12 10:40:55;;;;;;;;;;;3.80;99.90;;;;;;5075754;28;19959;-65
2022/01/12 10:43:28;;;;;;;;;;;3.80;99.90;;;;;;5024282;28;19925;-64
2022/01/12 10:45:54;;;;;;;;;;;3.80;99.90;;;;;;4996708;28;19983;-63
2022/01/12 10:48:20;;;;;;;;;;;3.80;99.90;;;;;;5006659;28;19958;-65
2022/01/12 10:50:56;;;;;;;;;;;3.80;99.90;;;;;;5062626;28;19931;-64
2022/01/12 10:53:29;;;;;;;;;;;3.90;99.90;;;;;;5005238;28;19980;-67
2022/01/12 10:56:08;;;;;;;;;;;4.00;99.90;;;;;;5076100;28;19921;-64
2022/01/12 10:58:35;;;;;;;;;;;4.10;99.90;;;;;;4988270;28;20012;-65
2022/01/12 11:01:02;;;;;;;;;;;4.10;99.90;;;;;;5063163;28;19932;-64
2022/01/12 11:03:29;;;;;;;;;;;4.30;99.90;;;;;;5076221;28;20016;-64
2022/01/12 11:05:55;;;;;;;;;;;4.30;99.90;;;;;;5008286;28;19929;-63
2022/01/12 11:08:23;;;;;;;;;;;4.30;99.90;;;;;;5000440;28;19933;-65
2022/01/12 11:10:49;;;;;;;;;;;4.30;99.90;;;;;;5006283;28;19929;-64
2022/01/12 11:13:17;;;;;;;;;;;4.40;99.90;;;;;;5012177;28;19925;-64
2022/01/12 11:15:42;;;;;;;;;;;4.40;99.90;;;;;;5083399;28;20286;-68
2022/01/12 11:18:09;;;;;;;;;;;4.50;99.90;;;;;;5047061;28;19922;-65
2022/01/12 11:20:34;;;;;;;;;;;4.50;99.90;;;;;;5058305;28;19926;-65
2022/01/12 11:23:09;;;;;;;;;;;4.60;99.90;;;;;;5065971;28;20343;-66
2022/01/12 11:25:40;;;;;;;;;;;4.60;99.90;;;;;;5116840;28;20280;-64
2022/01/12 11:28:06;;;;;;;;;;;4.70;99.90;;;;;;5113496;28;20033;-65
2022/01/12 11:30:34;;;;;;;;;;;4.70;99.90;;;;;;5113168;28;19923;-65
2022/01/12 11:33:03;;;;;;;;;;;4.70;99.90;;;;;;5112813;28;19919;-65
2022/01/12 11:35:29;;;;;;;;;;;4.70;99.90;;;;;;5113931;28;19938;-66
2022/01/12 11:37:59;;;;;;;;;;;4.80;99.90;;;;;;5131275;28;19927;-66
2022/01/12 11:40:32;;;;;;;;;;;4.70;99.90;;;;;;5119838;28;19919;-65
2022/01/12 11:42:57;;;;;;;;;;;4.80;99.90;;;;;;5102757;28;20014;-65
2022/01/12 11:45:23;;;;;;;;;;;4.80;99.90;;;;;;5096560;28;20002;-64
2022/01/12 11:47:49;;;;;;;;;;;4.80;99.90;;;;;;5131377;28;19964;-65
2022/01/12 11:50:14;;;;;;;;;;;4.80;99.90;;;;;;5112765;28;19923;-65
2022/01/12 11:52:40;;;;;;;;;;;4.80;99.90;;;;;;5108728;28;19920;-65
2022/01/12 11:55:16;;;;;;;;;;;4.80;99.90;;;;;;5112858;28;20257;-65
2022/01/12 11:57:46;;;;;;;;;;;4.80;99.90;;;;;;5112511;28;20501;-66
2022/01/12 12:00:13;;;;;;;;;;;4.90;99.90;;;;;;5131255;28;20291;-64
2022/01/12 12:02:40;;;;;;;;;;;4.90;99.90;;;;;;5128670;28;19926;-65
2022/01/12 12:05:11;;;;;;;;;;;5.00;99.90;;;;;;5111683;28;19924;-64
2022/01/12 12:07:46;;;;;;;;;;;5.00;99.90;;;;;;5113154;28;19923;-64
2022/01/12 12:10:14;;;;;;;;;;;5.10;99.90;;;;;;5114357;27;19919;-64
2022/01/12 12:12:40;;;;;;;;;;;5.20;99.90;;;;;;5135627;27;20271;-66
2022/01/12 12:15:07;;;;;;;;;;;5.20;99.90;;;;;;5116569;27;19919;-64
2022/01/12 12:17:34;;;;;;;;;;;5.30;99.90;;;;;;5135259;27;19941;-65
2022/01/12 12:20:00;;;;;;;;;;;5.30;99.90;;;;;;5099208;27;19919;-64
2022/01/12 12:22:28;;;;;;;;;;;5.30;99.90;;;;;;5100401;28;19923;-65
2022/01/12 12:24:58;;;;;;;;;;;5.30;99.90;;;;;;5078439;28;20008;-65
2022/01/12 12:27:26;;;;;;;;;;;5.30;99.90;;;;;;5079593;28;19925;-66
2022/01/12 12:29:52;;;;;;;;;;;5.30;99.90;;;;;;5082984;28;19921;-66
2022/01/12 12:32:19;;;;;;;;;;;5.30;99.90;;;;;;5012503;28;19974;-66
2022/01/12 12:34:45;;;;;;;;;;;5.30;99.90;;;;;;5081902;28;19921;-66
2022/01/12 12:37:13;;;;;;;;;;;5.40;99.90;;;;;;5099150;28;19983;-65
2022/01/12 12:39:40;;;;;;;;;;;5.40;99.90;;;;;;5030360;28;20405;-65
2022/01/12 12:42:13;;;;;;;;;;;5.40;99.90;;;;;;5097424;28;19921;-66
2022/01/12 12:44:39;;;;;;;;;;;5.40;99.90;;;;;;5084120;28;19925;-65
2022/01/12 12:47:07;;;;;;;;;;;5.50;99.90;;;;;;5098701;28;19948;-65
2022/01/12 12:49:54;;;;;;;;;;;5.50;99.90;;;;;;5082514;28;20285;-65
2022/01/12 12:52:33;;;;;;;;;;;5.50;99.90;;;;;;5081336;28;19928;-65
2022/01/12 12:55:00;;;;;;;;;;;5.50;99.90;;;;;;5078339;28;19926;-64
2022/01/12 12:57:27;;;;;;;;;;;5.60;99.90;;;;;;5010539;28;19972;-64
2022/01/12 13:00:11;;;;;;;;;;;5.60;99.90;;;;;;5010070;28;20015;-66
2022/01/12 13:02:41;;;;;;;;;;;5.60;99.90;;;;;;5010552;28;20426;-66
2022/01/12 13:05:09;;;;;;;;;;;5.60;99.90;;;;;;5064910;28;19925;-66
2022/01/12 13:07:39;;;;;;;;;;;5.60;99.90;;;;;;5081811;28;19925;-65
2022/01/12 13:10:11;;;;;;;;;;;5.60;99.90;;;;;;5029752;28;19925;-66
2022/01/12 13:12:38;;;;;;;;;;;5.60;99.90;;;;;;5079800;28;19986;-65
2022/01/12 13:15:04;;;;;;;;;;;5.60;99.90;;;;;;5078019;28;19943;-65
2022/01/12 13:17:30;;;;;;;;;;;5.60;99.90;;;;;;5080058;28;20351;-65
2022/01/12 13:22:26;;;;;;;;;;;5.60;99.90;;;;;;5096704;28;20426;-66
2022/01/12 13:24:51;;;;;;;;;;;5.60;99.90;;;;;;5090012;27;19919;-67
2022/01/12 13:27:17;;;;;;;;;;;5.50;99.90;;;;;;5098698;27;19950;-65
2022/01/12 13:29:47;;;;;;;;;;;5.50;99.90;;;;;;5115779;27;19923;-65
2022/01/12 13:32:13;;;;;;;;;;;5.40;99.90;;;;;;5114041;27;19994;-65
2022/01/12 13:34:42;;;;;;;;;;;5.40;99.90;;;;;;5134017;27;20014;-64
2022/01/12 13:37:12;;;;;;;;;;;5.40;99.90;;;;;;5115069;27;19966;-64
2022/01/12 13:39:38;;;;;;;;;;;5.40;99.90;;;;;;5091509;27;20002;-65
2022/01/12 13:42:04;;;;;;;;;;;5.40;99.90;;;;;;5131140;27;20257;-64
2022/01/12 13:44:29;;;;;;;;;;;5.40;99.90;;;;;;5109593;27;20029;-66
2022/01/12 13:50:03;;;;;;;;;;;5.50;99.90;;;;;;5106076;27;19962;-65
2022/01/12 13:52:29;;;;;;;;;;;5.50;99.90;;;;;;5103458;28;19923;-65
2022/01/12 13:54:55;;;;;;;;;;;5.40;99.90;;;;;;5060884;28;19923;-64
2022/01/12 13:57:21;;;;;;;;;;;5.50;99.90;;;;;;5094353;28;19968;-66
2022/01/12 13:59:50;;;;;;;;;;;5.50;99.90;;;;;;5127529;27;20349;-65
2022/01/12 14:02:18;;;;;;;;;;;5.50;99.90;;;;;;5124855;27;20306;-66
2022/01/12 14:04:53;;;;;;;;;;;5.50;99.90;;;;;;5111711;28;19923;-64
2022/01/12 14:07:25;;;;;;;;;;;5.40;99.90;;;;;;5121760;27;19923;-64
2022/01/12 14:09:55;;;;;;;;;;;5.40;99.90;;;;;;5129735;27;19968;-65
2022/01/12 14:12:24;;;;;;;;;;;5.40;99.90;;;;;;5113188;27;19924;-64
2022/01/12 14:14:50;;;;;;;;;;;5.40;99.90;;;;;;5111420;27;20341;-65
2022/01/12 14:17:36;;;;;;;;;;;5.40;99.90;;;;;;5113580;27;19988;-65
2022/01/12 14:20:06;;;;;;;;;;;5.30;99.90;;;;;;5110120;28;19930;-66
2022/01/12 14:22:42;;;;;;;;;;;5.30;99.90;;;;;;5113476;27;19923;-66
2022/01/12 14:25:08;;;;;;;;;;;5.30;99.90;;;;;;5110886;28;20011;-63
2022/01/12 14:27:40;;;;;;;;;;;5.30;99.90;;;;;;5113585;27;20017;-64
2022/01/12 14:30:07;;;;;;;;;;;5.20;99.90;;;;;;5114682;27;20401;-65
2022/01/12 14:32:36;;;;;;;;;;;5.20;99.90;;;;;;5103353;27;19919;-65
2022/01/12 14:35:06;;;;;;;;;;;5.20;99.90;;;;;;5104955;27;20284;-65
2022/01/12 14:37:32;;;;;;;;;;;5.10;99.90;;;;;;5124561;27;19923;-66
2022/01/12 14:39:58;;;;;;;;;;;5.10;99.90;;;;;;5097348;27;20435;-65
2022/01/12 14:42:24;;;;;;;;;;;5.10;99.90;;;;;;5111982;27;20119;-65
2022/01/12 14:44:49;;;;;;;;;;;5.20;99.90;;;;;;5113185;27;20001;-64
2022/01/12 14:47:15;;;;;;;;;;;5.10;99.90;;;;;;5111407;27;19934;-65
2022/01/12 14:49:41;;;;;;;;;;;5.10;99.90;;;;;;5117106;27;20652;-65
2022/01/12 14:52:07;;;;;;;;;;;5.10;99.90;;;;;;5081866;28;20053;-64
2022/01/12 14:54:32;;;;;;;;;;;5.10;99.90;;;;;;5111877;28;19972;-64
2022/01/12 14:56:58;;;;;;;;;;;5.10;99.90;;;;;;5093858;28;19928;-65
2022/01/12 14:59:23;;;;;;;;;;;5.10;99.90;;;;;;5125155;27;19919;-65
2022/01/12 15:01:49;;;;;;;;;;;5.10;99.90;;;;;;5130674;27;19919;-65
2022/01/12 15:04:15;;;;;;;;;;;5.10;99.90;;;;;;5107425;28;19919;-65
2022/01/12 15:06:40;;;;;;;;;;;5.10;99.90;;;;;;5093757;28;19926;-65
2022/01/12 15:09:06;;;;;;;;;;;5.10;99.90;;;;;;5087997;28;19919;-65
2022/01/12 15:11:38;;;;;;;;;;;5.20;99.90;;;;;;5113439;27;19919;-64
2022/01/12 15:14:21;;;;;;;;;;;5.20;99.90;;;;;;5093699;28;19940;-66
2022/01/12 15:16:47;;;;;;;;;;;5.20;99.90;;;;;;5113614;27;20342;-64
2022/01/12 15:19:13;;;;;;;;;;;5.20;99.90;;;;;;5131184;27;19923;-65
2022/01/12 15:21:38;;;;;;;;;;;5.20;99.90;;;;;;5113484;28;19930;-65
2022/01/12 15:24:04;;;;;;;;;;;5.20;99.90;;;;;;5131127;28;20264;-65
2022/01/12 15:26:30;;;;;;;;;;;5.20;99.90;;;;;;5094154;28;19923;-66
2022/01/12 15:28:55;;;;;;;;;;;5.20;99.90;;;;;;5127332;28;19928;-65
2022/01/12 15:31:21;;;;;;;;;;;5.20;99.90;;;;;;5129473;28;19927;-68
2022/01/12 15:33:47;;;;;;;;;;;5.20;99.90;;;;;;5084714;28;19931;-66
2022/01/12 15:36:14;;;;;;;;;;;5.20;99.90;;;;;;5113196;28;19930;-65
2022/01/12 15:38:40;;;;;;;;;;;5.20;99.90;;;;;;5096300;28;20280;-66
2022/01/12 15:41:05;;;;;;;;;;;5.20;99.90;;;;;;5130824;28;19927;-66
2022/01/12 15:43:31;;;;;;;;;;;5.20;99.90;;;;;;5112089;27;19923;-66
2022/01/12 15:45:56;;;;;;;;;;;5.20;99.90;;;;;;5133990;27;20009;-65
2022/01/12 15:48:22;;;;;;;;;;;5.30;99.90;;;;;;5134400;27;20299;-65
2022/01/12 15:50:48;;;;;;;;;;;5.20;99.90;;;;;;5100357;27;19971;-65
2022/01/12 15:53:13;;;;;;;;;;;5.20;99.90;;;;;;5135282;27;19923;-67
2022/01/12 15:55:39;;;;;;;;;;;5.20;99.90;;;;;;5081862;27;19977;-66
2022/01/12 15:58:05;;;;;;;;;;;5.20;99.90;;;;;;5099353;27;19944;-65
2022/01/12 16:00:35;;;;;;;;;;;5.20;99.90;;;;;;5116409;27;19972;-66
2022/01/12 16:03:01;;;;;;;;;;;5.20;99.90;;;;;;5116584;27;19926;-65